Time;durP1;ratioP1;P1;durP2;ratioP2;P2;SDS_P1;SDS_P2;PMS_P1;PMS_P2;Temp;Humidity;BMP_temperature;BMP_pressure;BME280_temperature;BME280_humidity;BME280_pressure;Samples;Min_cycle;Max_cycle;Signal;HPM_P1;HPM_P2
2022/11/27 00:02:20;;;;;;;3.33;1.63;;;;;;;7.89;100.00;101519.28;5045230;28;20478;-56
2022/11/27 00:04:46;;;;;;;1.20;1.10;;;;;;;7.75;100.00;101517.47;5041979;28;20981;-57
2022/11/27 00:07:12;;;;;;;1.00;1.00;;;;;;;7.34;100.00;101515.56;5040143;28;20491;-57
2022/11/27 00:09:39;;;;;;;3.60;2.27;;;;;;;7.51;100.00;101519.16;5036869;28;20543;-57
2022/11/27 00:12:06;;;;;;;1.53;1.43;;;;;;;7.43;100.00;101512.97;5029541;28;20474;-56
2022/11/27 00:14:32;;;;;;;1.20;0.70;;;;;;;7.53;100.00;101509.47;5036935;28;20454;-57
2022/11/27 00:16:59;;;;;;;1.90;1.70;;;;;;;7.36;100.00;101503.22;5040877;28;20506;-56
2022/11/27 00:19:26;;;;;;;5.97;1.33;;;;;;;7.35;100.00;101491.78;5033814;28;20546;-56
2022/11/27 00:21:52;;;;;;;4.73;1.57;;;;;;;7.33;100.00;101493.53;5040094;28;20498;-56
2022/11/27 00:24:19;;;;;;;2.40;1.50;;;;;;;7.29;100.00;101496.16;5040399;28;20577;-57
2022/11/27 00:26:45;;;;;;;1.00;1.00;;;;;;;7.59;100.00;101490.09;5039890;28;20536;-56
2022/11/27 00:29:12;;;;;;;1.87;1.77;;;;;;;7.52;100.00;101486.53;5028658;28;20832;-57
2022/11/27 00:31:38;;;;;;;1.27;1.20;;;;;;;7.60;100.00;101491.88;5033129;28;20484;-57
2022/11/27 00:34:07;;;;;;;1.77;1.67;;;;;;;7.53;100.00;101482.13;5040794;28;20455;-57
2022/11/27 00:36:34;;;;;;;1.43;1.33;;;;;;;7.64;100.00;101483.03;5041487;28;20451;-56
2022/11/27 00:39:01;;;;;;;1.80;1.70;;;;;;;7.43;100.00;101481.22;5035628;28;20809;-57
2022/11/27 00:41:29;;;;;;;2.67;1.77;;;;;;;7.57;100.00;101473.34;5020733;28;20531;-56
2022/11/27 00:43:56;;;;;;;3.60;1.33;;;;;;;7.76;100.00;101477.78;5043548;28;20451;-56
2022/11/27 00:46:25;;;;;;;1.60;1.10;;;;;;;7.82;100.00;101474.28;5041430;28;20856;-56
2022/11/27 00:48:56;;;;;;;2.23;1.93;;;;;;;7.79;100.00;101475.13;5035391;28;20461;-56
2022/11/27 00:51:23;;;;;;;4.50;3.07;;;;;;;7.96;100.00;101473.41;5036688;28;20831;-57
2022/11/27 00:53:51;;;;;;;1.47;1.37;;;;;;;8.06;100.00;101471.66;5043257;28;20447;-57
2022/11/27 00:56:26;;;;;;;5.93;2.73;;;;;;;7.83;100.00;101468.09;5016710;28;20444;-56
2022/11/27 00:58:53;;;;;;;5.90;3.10;;;;;;;8.13;100.00;101462.84;5027579;28;20469;-57
2022/11/27 01:01:22;;;;;;;5.70;2.50;;;;;;;7.94;100.00;101464.56;5035428;28;20949;-56
2022/11/27 01:03:49;;;;;;;1.67;1.23;;;;;;;7.96;100.00;101468.13;5049816;28;20478;-57
2022/11/27 01:06:17;;;;;;;2.13;1.97;;;;;;;7.97;100.00;101463.72;5035994;28;20951;-57
2022/11/27 01:08:44;;;;;;;1.93;1.80;;;;;;;7.96;100.00;101469.91;5028818;28;20482;-56
2022/11/27 01:11:14;;;;;;;4.40;2.70;;;;;;;7.95;100.00;101466.38;5016243;28;20466;-57
2022/11/27 01:13:41;;;;;;;22.13;1.83;;;;;;;8.05;100.00;101467.22;5039732;28;20985;-57
2022/11/27 01:16:13;;;;;;;19.53;2.77;;;;;;;7.97;100.00;101467.25;5042794;28;20451;-57
2022/11/27 01:18:41;;;;;;;1.93;1.83;;;;;;;8.07;100.00;101454.00;5039751;28;20461;-57
2022/11/27 01:21:10;;;;;;;3.30;2.97;;;;;;;8.00;100.00;101464.59;5035727;28;20457;-56
2022/11/27 01:23:36;;;;;;;3.03;1.67;;;;;;;8.18;100.00;101458.41;5038008;28;20459;-57
2022/11/27 01:26:05;;;;;;;4.20;3.00;;;;;;;8.04;100.00;101462.81;5040633;28;21006;-57
2022/11/27 01:28:33;;;;;;;5.53;2.97;;;;;;;7.99;100.00;101457.53;5012436;28;20460;-57
2022/11/27 01:31:05;;;;;;;8.60;3.23;;;;;;;7.98;100.00;101445.19;5029330;28;20463;-56
2022/11/27 01:33:32;;;;;;;2.33;2.23;;;;;;;7.88;100.00;101454.00;5036390;28;20482;-56
2022/11/27 01:36:02;;;;;;;5.00;2.63;;;;;;;7.95;100.00;101452.25;5049028;28;20504;-56
2022/11/27 01:38:30;;;;;;;5.33;2.10;;;;;;;7.98;100.00;101444.31;5029677;28;20455;-57
2022/11/27 01:41:07;;;;;;;1.27;1.17;;;;;;;7.86;100.00;101452.22;5046267;28;20990;-56
2022/11/27 01:43:37;;;;;;;16.37;2.40;;;;;;;7.85;100.00;101451.34;5046677;28;20473;-57
2022/11/27 01:46:09;;;;;;;2.80;2.27;;;;;;;7.82;100.00;101454.00;5042963;28;20491;-57
2022/11/27 01:48:36;;;;;;;2.10;1.90;;;;;;;7.77;100.00;101446.91;5031958;28;20459;-57
2022/11/27 01:51:03;;;;;;;1.27;0.97;;;;;;;7.67;100.00;101457.47;5042605;28;20884;-56
2022/11/27 01:53:29;;;;;;;2.77;1.73;;;;;;;7.70;100.00;101451.31;5039161;28;20484;-57
2022/11/27 01:56:00;;;;;;;3.60;2.40;;;;;;;7.61;100.00;101449.53;5024154;28;20456;-57
2022/11/27 01:58:29;;;;;;;1.20;1.17;;;;;;;7.76;100.00;101447.78;5040562;28;20516;-56
2022/11/27 02:00:55;;;;;;;2.67;2.47;;;;;;;7.78;100.00;101453.97;5041967;28;20489;-57
2022/11/27 02:03:22;;;;;;;3.83;3.50;;;;;;;7.68;100.00;101451.31;5046015;28;21059;-57
2022/11/27 02:05:49;;;;;;;10.93;2.87;;;;;;;7.65;100.00;101451.28;5044345;28;20455;-57
2022/11/27 02:08:16;;;;;;;2.00;1.80;;;;;;;7.67;100.00;101454.81;5039063;28;20533;-56
2022/11/27 02:11:01;;;;;;;2.90;2.43;;;;;;;7.69;100.00;101453.09;5040814;28;20533;-56
2022/11/27 02:13:34;;;;;;;2.70;2.50;;;;;;;7.71;100.00;101446.03;5028750;28;20471;-56
2022/11/27 02:16:23;;;;;;;9.83;2.23;;;;;;;7.80;100.00;101449.56;5020832;28;20971;-57
2022/11/27 02:18:49;;;;;;;3.50;3.30;;;;;;;7.73;100.00;101453.97;5047995;28;20837;-57
2022/11/27 02:21:20;;;;;;;2.10;1.57;;;;;;;7.64;100.00;101453.94;5038994;28;20461;-57
2022/11/27 02:23:57;;;;;;;4.70;1.93;;;;;;;7.69;100.00;101446.91;5039801;28;20451;-57
2022/11/27 02:26:43;;;;;;;2.10;2.00;;;;;;;7.76;100.00;101446.03;5032765;28;20540;-56
2022/11/27 02:29:16;;;;;;;4.03;2.53;;;;;;;7.63;100.00;101429.25;5042816;28;20828;-56
2022/11/27 02:32:04;;;;;;;7.10;1.17;;;;;;;7.63;100.00;101423.06;5028300;28;20492;-57
2022/11/27 02:34:50;;;;;;;6.53;1.47;;;;;;;7.56;100.00;101416.03;5029441;28;20455;-52
2022/11/27 02:37:38;;;;;;;2.90;1.80;;;;;;;7.63;100.00;101415.13;5037583;28;20457;-52
2022/11/27 02:40:13;;;;;;;1.53;1.43;;;;;;;7.65;100.00;101416.00;5038260;28;20932;-52
2022/11/27 02:42:55;;;;;;;2.77;2.67;;;;;;;7.61;100.00;101411.59;5043254;28;20471;-53
2022/11/27 02:45:30;;;;;;;1.47;1.37;;;;;;;7.44;100.00;101411.56;5043618;28;20448;-52
2022/11/27 02:47:57;;;;;;;2.00;1.83;;;;;;;7.39;100.00;101402.72;5031058;28;20498;-52
2022/11/27 02:50:26;;;;;;;5.70;2.73;;;;;;;7.40;100.00;101404.50;5044956;28;20814;-53
2022/11/27 02:52:58;;;;;;;6.70;1.30;;;;;;;7.49;100.00;101406.28;5043515;28;20474;-53
2022/11/27 02:55:28;;;;;;;19.03;2.20;;;;;;;7.51;100.00;101402.75;5044357;28;20802;-53
2022/11/27 02:57:57;;;;;;;8.83;2.00;;;;;;;7.51;100.00;101402.75;5043026;28;20805;-54
2022/11/27 03:00:24;;;;;;;5.63;2.53;;;;;;;7.59;100.00;101408.97;5044543;28;20460;-54
2022/11/27 03:02:56;;;;;;;1.27;1.20;;;;;;;7.58;100.00;101407.19;5044331;28;20979;-55
2022/11/27 03:05:29;;;;;;;5.00;4.70;;;;;;;7.56;100.00;101393.09;5039729;28;20680;-51
2022/11/27 03:08:07;;;;;;;3.57;1.43;;;;;;;7.55;100.00;101393.09;5037061;28;20491;-52
2022/11/27 03:10:50;;;;;;;16.13;1.50;;;;;;;7.51;100.00;101393.94;5041123;28;20451;-53
2022/11/27 03:13:17;;;;;;;3.40;3.00;;;;;;;7.83;100.00;101391.34;5044434;28;20468;-53
2022/11/27 03:16:15;;;;;;;2.17;2.07;;;;;;;7.55;100.00;101388.69;5035385;28;20999;-52
2022/11/27 03:19:01;;;;;;;18.67;3.47;;;;;;;7.53;100.00;101379.81;5041657;28;20455;-52
2022/11/27 03:21:52;;;;;;;2.47;2.27;;;;;;;7.59;100.00;101366.63;5032038;28;20460;-52
2022/11/27 03:24:19;;;;;;;3.40;2.07;;;;;;;7.62;100.00;101360.44;5033116;28;20916;-52
2022/11/27 03:26:45;;;;;;;22.07;4.20;;;;;;;7.48;100.00;101365.72;5035304;28;20530;-53
2022/11/27 03:29:17;;;;;;;3.17;2.97;;;;;;;7.61;100.00;101364.84;5044298;28;20491;-52
2022/11/27 03:31:43;;;;;;;4.67;3.10;;;;;;;7.61;100.00;101366.63;5025927;28;20554;-54
2022/11/27 03:34:10;;;;;;;6.00;5.13;;;;;;;7.59;100.00;101365.75;5032266;28;20486;-52
2022/11/27 03:36:36;;;;;;;23.27;2.23;;;;;;;7.61;100.00;101359.56;5036967;28;20452;-52
2022/11/27 03:39:03;;;;;;;1.90;1.80;;;;;;;7.66;100.00;101356.91;5041788;28;20460;-54
2022/11/27 03:41:38;;;;;;;2.13;2.03;;;;;;;7.64;100.00;101356.03;5041555;28;20491;-53
2022/11/27 03:44:21;;;;;;;4.53;4.20;;;;;;;7.50;100.00;101348.09;5036974;28;20955;-53
2022/11/27 03:47:29;;;;;;;2.10;1.97;;;;;;;7.38;100.00;101343.66;5036446;28;20476;-52
2022/11/27 03:50:16;;;;;;;3.30;2.90;;;;;;;7.46;100.00;101342.81;5036464;28;20463;-52
2022/11/27 03:52:45;;;;;;;12.67;3.13;;;;;;;7.52;100.00;101340.16;5040089;28;20471;-51
2022/11/27 03:55:24;;;;;;;5.97;3.40;;;;;;;7.55;100.00;101350.75;5039711;28;20449;-54
2022/11/27 03:58:04;;;;;;;9.20;2.87;;;;;;;7.45;100.00;101333.09;5035529;28;20461;-52
2022/11/27 04:00:36;;;;;;;4.60;4.20;;;;;;;7.25;100.00;101338.34;5026069;28;20784;-55
2022/11/27 04:03:03;;;;;;;3.07;2.87;;;;;;;7.28;100.00;101330.44;5044403;28;20995;-55
2022/11/27 04:05:30;;;;;;;3.70;3.50;;;;;;;7.22;100.00;101335.69;5031745;28;20841;-54
2022/11/27 04:07:56;;;;;;;5.00;3.80;;;;;;;7.18;100.00;101336.59;5032935;28;20989;-52
2022/11/27 04:10:22;;;;;;;13.10;6.13;;;;;;;7.20;100.00;101335.72;5041010;28;20505;-53
2022/11/27 04:12:49;;;;;;;7.70;4.00;;;;;;;7.09;100.00;101327.75;5043455;28;20585;-52
2022/11/27 04:15:15;;;;;;;7.13;4.40;;;;;;;7.30;100.00;101318.97;5038832;28;20504;-53
2022/11/27 04:17:42;;;;;;;13.03;4.47;;;;;;;7.41;100.00;101313.72;5035479;28;20803;-52
2022/11/27 04:20:11;;;;;;;4.70;3.70;;;;;;;7.53;100.00;101318.97;5040599;28;20455;-56
2022/11/27 04:22:37;;;;;;;4.67;4.07;;;;;;;7.51;100.00;101317.22;5043465;28;20483;-53
2022/11/27 04:25:04;;;;;;;7.00;3.73;;;;;;;7.52;100.00;101311.06;5031487;28;20459;-52
2022/11/27 04:27:30;;;;;;;3.47;3.00;;;;;;;7.58;100.00;101311.06;5034471;28;20487;-52
2022/11/27 04:29:56;;;;;;;12.73;5.87;;;;;;;7.54;100.00;101310.19;5040028;28;20869;-52
2022/11/27 04:32:23;;;;;;;8.53;4.30;;;;;;;7.55;100.00;101311.06;5022210;28;21051;-54
2022/11/27 04:34:49;;;;;;;5.87;3.23;;;;;;;7.60;100.00;101314.59;5036848;28;20509;-52
2022/11/27 04:37:16;;;;;;;7.10;4.40;;;;;;;7.54;100.00;101318.13;5037379;28;20967;-53
2022/11/27 04:39:42;;;;;;;3.70;3.33;;;;;;;7.38;100.00;101314.56;5040778;28;20528;-54
2022/11/27 04:42:09;;;;;;;7.80;3.03;;;;;;;7.27;100.00;101312.81;5035994;28;20496;-54
2022/11/27 04:44:35;;;;;;;6.10;4.07;;;;;;;7.09;100.00;101324.22;5038396;28;20880;-54
2022/11/27 04:47:01;;;;;;;7.03;4.93;;;;;;;7.24;100.00;101324.25;5042844;28;20983;-52
2022/11/27 04:49:28;;;;;;;8.70;4.90;;;;;;;7.42;100.00;101328.69;5038941;28;20869;-52
2022/11/27 04:51:54;;;;;;;6.20;4.20;;;;;;;7.43;100.00;101328.69;5042850;28;20468;-52
2022/11/27 04:54:21;;;;;;;4.13;2.50;;;;;;;7.34;100.00;101330.44;5039814;28;20450;-52
2022/11/27 04:56:47;;;;;;;18.67;4.13;;;;;;;7.19;100.00;101326.00;5029258;28;20464;-53
2022/11/27 04:59:14;;;;;;;5.20;4.07;;;;;;;7.08;100.00;101314.53;5030754;28;20484;-53
2022/11/27 05:01:40;;;;;;;12.90;3.87;;;;;;;6.92;100.00;101312.72;5025932;28;20482;-52
2022/11/27 05:04:07;;;;;;;7.67;3.27;;;;;;;6.71;100.00;101317.03;5038611;28;20799;-52
2022/11/27 05:06:33;;;;;;;8.40;4.63;;;;;;;6.88;100.00;101316.25;5041488;28;20448;-52
2022/11/27 05:09:00;;;;;;;4.33;2.40;;;;;;;6.73;100.00;101320.59;5039312;28;20454;-54
2022/11/27 05:11:29;;;;;;;8.40;5.97;;;;;;;6.68;100.00;101317.03;5035500;28;20461;-52
2022/11/27 05:16:51;;;;;;;4.07;3.73;;;;;;;6.61;100.00;101317.03;5035838;28;20541;-52
2022/11/27 05:19:20;;;;;;;27.47;5.33;;;;;;;6.68;100.00;101311.75;5038177;28;20465;-54
2022/11/27 05:21:48;;;;;;;5.20;4.80;;;;;;;6.56;100.00;101317.00;5038081;28;20470;-52
2022/11/27 05:24:19;;;;;;;5.00;2.27;;;;;;;6.42;100.00;101303.72;5032646;28;20935;-52
2022/11/27 05:26:46;;;;;;;7.23;5.33;;;;;;;6.27;100.00;101311.56;5028809;28;20447;-52
2022/11/27 05:29:13;;;;;;;3.67;3.37;;;;;;;6.21;100.00;101301.88;5035625;28;20473;-53
2022/11/27 05:31:40;;;;;;;4.30;3.73;;;;;;;6.27;100.00;101300.13;5038078;28;20488;-53
2022/11/27 05:34:07;;;;;;;2.83;2.40;;;;;;;6.30;100.00;101297.50;5040574;28;20488;-54
2022/11/27 05:36:34;;;;;;;2.90;2.80;;;;;;;6.24;100.00;101299.25;5031022;28;20840;-52
2022/11/27 05:39:03;;;;;;;3.47;2.77;;;;;;;6.15;100.00;101306.22;5035399;28;20806;-52
2022/11/27 05:41:29;;;;;;;19.70;4.20;;;;;;;6.16;100.00;101300.94;5036830;28;20479;-52
2022/11/27 05:43:56;;;;;;;3.80;3.60;;;;;;;6.48;100.00;101308.16;5041517;28;20455;-52
2022/11/27 05:46:22;;;;;;;2.57;2.03;;;;;;;6.67;100.00;101317.03;5039944;28;20450;-53
2022/11/27 05:48:49;;;;;;;4.70;3.40;;;;;;;6.43;100.00;101305.47;5035081;28;20937;-53
2022/11/27 05:51:16;;;;;;;5.30;3.07;;;;;;;6.19;100.00;101294.81;5017227;28;20463;-52
2022/11/27 05:53:43;;;;;;;3.63;3.33;;;;;;;6.36;100.00;101292.25;5040230;28;21238;-52
2022/11/27 05:56:13;;;;;;;4.20;4.00;;;;;;;6.33;100.00;101294.91;5028055;28;20460;-53
2022/11/27 05:58:41;;;;;;;6.13;4.03;;;;;;;6.15;100.00;101293.91;5041757;28;20444;-53
2022/11/27 06:01:09;;;;;;;13.63;5.33;;;;;;;6.17;100.00;101294.81;5038234;28;20554;-52
2022/11/27 06:03:37;;;;;;;3.27;2.67;;;;;;;6.07;100.00;101295.63;5041457;28;21023;-52
2022/11/27 06:06:09;;;;;;;6.30;5.37;;;;;;;6.10;100.00;101287.72;5018233;28;20456;-53
2022/11/27 06:08:37;;;;;;;11.43;1.80;;;;;;;6.10;100.00;101279.81;5038357;28;20892;-52
2022/11/27 06:11:08;;;;;;;5.00;4.50;;;;;;;6.14;100.00;101268.38;5034615;28;20486;-52
2022/11/27 06:13:35;;;;;;;3.97;3.53;;;;;;;5.85;100.00;101251.47;5039680;28;20483;-54
2022/11/27 06:16:06;;;;;;;27.23;5.13;;;;;;;5.84;100.00;101258.50;5041094;28;20508;-53
2022/11/27 06:18:32;;;;;;;10.30;4.70;;;;;;;5.97;100.00;101253.34;5037406;28;20831;-51
2022/11/27 06:20:59;;;;;;;8.90;5.30;;;;;;;5.86;100.00;101248.84;5037801;28;20458;-52
2022/11/27 06:23:25;;;;;;;4.23;3.37;;;;;;;5.94;100.00;101255.09;5042491;28;20510;-53
2022/11/27 06:25:52;;;;;;;2.47;2.37;;;;;;;6.01;100.00;101258.63;5033975;28;20961;-52
2022/11/27 06:28:18;;;;;;;8.43;4.20;;;;;;;6.19;100.00;101260.50;5042585;28;20499;-52
2022/11/27 06:30:45;;;;;;;3.93;3.50;;;;;;;5.94;100.00;101263.00;5045482;28;20446;-52
2022/11/27 06:33:11;;;;;;;6.17;5.73;;;;;;;6.07;100.00;101263.97;5028871;28;20946;-52
2022/11/27 06:35:37;;;;;;;3.70;3.50;;;;;;;5.91;100.00;101260.34;5045325;28;20528;-54
2022/11/27 06:38:04;;;;;;;3.17;2.97;;;;;;;6.09;100.00;101256.94;5041327;28;20454;-52
2022/11/27 06:40:30;;;;;;;4.87;4.47;;;;;;;6.02;100.00;101249.84;5037879;28;20455;-53
2022/11/27 06:42:57;;;;;;;5.77;4.50;;;;;;;5.86;100.00;101250.59;5041640;28;20537;-52
2022/11/27 06:45:23;;;;;;;3.53;3.33;;;;;;;5.65;100.00;101252.25;5041517;28;20463;-53
2022/11/27 06:47:49;;;;;;;4.13;3.70;;;;;;;5.54;100.00;101263.56;5041317;28;20941;-53
2022/11/27 06:50:16;;;;;;;3.53;2.87;;;;;;;5.57;100.00;101267.09;5038272;28;20459;-52
2022/11/27 06:52:42;;;;;;;3.30;3.00;;;;;;;5.57;100.00;101277.66;5041463;28;20479;-53
2022/11/27 06:55:09;;;;;;;5.00;4.37;;;;;;;5.78;100.00;101273.44;5040260;28;20950;-54
2022/11/27 06:57:37;;;;;;;5.10;2.60;;;;;;;5.40;100.00;101273.13;5021101;28;20487;-54
2022/11/27 07:00:04;;;;;;;2.80;2.60;;;;;;;5.41;100.00;101262.59;5044472;28;20460;-53
2022/11/27 07:02:30;;;;;;;4.50;4.30;;;;;;;5.27;100.00;101256.31;5032636;28;20873;-52
2022/11/27 07:04:57;;;;;;;2.87;2.70;;;;;;;5.10;100.00;101252.66;5034283;28;20497;-52
2022/11/27 07:07:23;;;;;;;2.93;1.83;;;;;;;4.98;100.00;101250.78;5039682;28;20459;-53
2022/11/27 07:09:50;;;;;;;3.00;2.77;;;;;;;5.13;100.00;101240.41;5044400;28;20452;-54
2022/11/27 07:12:16;;;;;;;7.07;2.30;;;;;;;5.12;100.00;101230.72;5042324;28;20537;-51
2022/11/27 07:14:43;;;;;;;1.63;1.53;;;;;;;5.00;100.00;101220.06;5040809;28;20459;-54
2022/11/27 07:17:09;;;;;;;3.47;2.60;;;;;;;4.99;100.00;101213.03;5037566;28;20458;-52
2022/11/27 07:19:35;;;;;;;4.23;3.87;;;;;;;5.09;100.00;101220.16;5037581;28;20453;-51
2022/11/27 07:22:02;;;;;;;2.37;2.13;;;;;;;4.82;100.00;101210.25;5039078;28;20529;-52
2022/11/27 07:24:28;;;;;;;3.43;3.13;;;;;;;4.81;100.00;101211.13;5023882;28;20948;-52
2022/11/27 07:26:55;;;;;;;3.27;3.00;;;;;;;4.86;100.00;101208.53;5039503;28;20460;-53
2022/11/27 07:29:21;;;;;;;4.20;2.00;;;;;;;4.62;100.00;101196.88;5042006;28;20493;-52
2022/11/27 07:31:49;;;;;;;2.03;1.93;;;;;;;4.66;100.00;101184.63;5021765;28;20911;-54
2022/11/27 07:34:16;;;;;;;1.63;1.53;;;;;;;4.62;100.00;101191.59;5034952;28;20482;-53
2022/11/27 07:36:47;;;;;;;9.47;2.57;;;;;;;4.68;100.00;101198.69;5037881;28;20475;-52
2022/11/27 07:39:16;;;;;;;2.07;1.23;;;;;;;4.73;100.00;101210.16;5043973;28;20448;-53
2022/11/27 07:41:59;;;;;;;1.80;1.47;;;;;;;5.08;100.00;101228.06;5041288;28;21034;-51
2022/11/27 07:44:45;;;;;;;3.20;3.10;;;;;;;5.30;100.00;101219.44;5034079;28;20450;-53
2022/11/27 07:47:12;;;;;;;2.73;2.47;;;;;;;5.27;100.00;101214.16;5027550;28;20456;-52
2022/11/27 07:49:38;;;;;;;3.13;1.60;;;;;;;5.30;100.00;101229.97;5024327;28;20492;-53
2022/11/27 07:52:05;;;;;;;4.60;3.13;;;;;;;5.51;100.00;101222.25;5025721;28;20499;-55
2022/11/27 07:54:31;;;;;;;2.87;2.50;;;;;;;5.25;100.00;101202.72;5025127;28;20949;-55
2022/11/27 07:56:58;;;;;;;4.33;3.17;;;;;;;5.23;100.00;101204.47;5033565;28;21014;-53
2022/11/27 07:59:25;;;;;;;2.50;2.30;;;;;;;5.50;100.00;101202.03;5038401;28;21011;-55
2022/11/27 08:01:51;;;;;;;3.27;1.90;;;;;;;5.54;100.00;101195.91;5044830;28;20895;-55
2022/11/27 08:04:18;;;;;;;3.33;3.03;;;;;;;5.45;100.00;101197.56;5038345;28;20462;-53
2022/11/27 08:06:47;;;;;;;2.50;2.40;;;;;;;5.43;100.00;101192.31;5041186;28;20487;-54
2022/11/27 08:09:14;;;;;;;12.23;4.43;;;;;;;5.20;100.00;101196.50;5035295;28;20490;-54
2022/11/27 08:11:40;;;;;;;4.57;4.27;;;;;;;5.33;100.00;101198.38;5018999;28;20482;-54
2022/11/27 08:14:07;;;;;;;3.63;2.83;;;;;;;5.21;100.00;101199.19;5043976;28;20512;-54
2022/11/27 08:16:34;;;;;;;2.13;2.00;;;;;;;5.51;100.00;101216.09;5034544;28;20450;-54
2022/11/27 08:19:02;;;;;;;6.70;3.30;;;;;;;5.69;100.00;101213.56;5042854;28;20451;-54
2022/11/27 08:21:29;;;;;;;2.80;2.70;;;;;;;5.62;100.00;101210.03;5035805;28;20451;-57
2022/11/27 08:23:57;;;;;;;3.20;3.10;;;;;;;5.52;100.00;101208.19;5037051;28;20470;-54
2022/11/27 08:26:26;;;;;;;6.33;0.90;;;;;;;5.38;100.00;101195.78;5025995;28;20459;-56
2022/11/27 08:28:53;;;;;;;8.23;1.87;;;;;;;5.59;100.00;101209.09;5022820;28;20495;-54
2022/11/27 08:31:20;;;;;;;2.00;1.90;;;;;;;5.84;100.00;101215.41;5038545;28;20922;-55
2022/11/27 08:33:47;;;;;;;2.77;2.57;;;;;;;5.97;100.00;101209.38;5024151;28;20546;-56
2022/11/27 08:36:13;;;;;;;5.97;2.07;;;;;;;5.98;100.00;101202.31;5040857;28;20864;-54
2022/11/27 08:38:44;;;;;;;5.60;2.63;;;;;;;6.01;100.00;101192.66;5042904;28;20558;-55
2022/11/27 08:41:10;;;;;;;1.23;1.20;;;;;;;6.16;100.00;101190.09;5025085;28;20454;-55
2022/11/27 08:43:37;;;;;;;2.33;2.07;;;;;;;6.01;100.00;101184.75;5037560;28;20454;-53
2022/11/27 08:46:05;;;;;;;2.90;2.47;;;;;;;5.87;100.00;101186.41;5037693;28;21261;-54
2022/11/27 08:48:32;;;;;;;7.87;2.77;;;;;;;6.10;100.00;101189.19;5034952;28;20491;-55
2022/11/27 08:51:04;;;;;;;1.10;1.07;;;;;;;6.23;100.00;101183.97;5033280;28;20461;-54
2022/11/27 08:53:31;;;;;;;2.60;2.00;;;;;;;6.16;100.00;101176.00;5030060;28;20502;-54
2022/11/27 08:56:05;;;;;;;2.70;2.60;;;;;;;6.11;100.00;101183.03;5030136;28;20460;-54
2022/11/27 08:58:31;;;;;;;1.30;1.30;;;;;;;5.95;100.00;101182.09;5042225;28;20447;-54
2022/11/27 09:00:57;;;;;;;1.60;1.50;;;;;;;6.07;100.00;101186.53;5027807;28;20815;-55
2022/11/27 09:03:24;;;;;;;1.67;1.00;;;;;;;6.28;100.00;101183.97;5027503;28;20471;-54
2022/11/27 09:05:50;;;;;;;2.20;2.10;;;;;;;6.37;100.00;101177.84;5024788;28;20513;-55
2022/11/27 09:08:20;;;;;;;2.53;2.43;;;;;;;6.59;100.00;101170.88;5041595;28;20491;-55
2022/11/27 09:10:46;;;;;;;2.30;2.13;;;;;;;6.82;100.00;101177.94;5031593;28;20602;-56
2022/11/27 09:13:12;;;;;;;5.57;5.07;;;;;;;6.54;100.00;101166.44;5033576;28;20490;-54
2022/11/27 09:15:39;;;;;;;2.17;2.07;;;;;;;6.81;100.00;101165.59;5028466;28;20454;-57
2022/11/27 09:18:06;;;;;;;8.23;1.80;;;;;;;6.75;100.00;101168.25;5028835;28;20952;-54
2022/11/27 09:20:37;;;;;;;2.70;2.60;;;;;;;6.68;100.00;101158.53;5042094;28;20457;-55
2022/11/27 09:23:03;;;;;;;3.27;3.00;;;;;;;6.25;100.00;101162.84;5033359;28;20505;-57
2022/11/27 09:25:33;;;;;;;2.47;2.37;;;;;;;6.37;100.00;101159.38;5028899;28;20454;-55
2022/11/27 09:28:00;;;;;;;2.20;2.00;;;;;;;6.50;100.00;101146.19;5024739;28;20447;-56
2022/11/27 09:30:26;;;;;;;3.00;1.37;;;;;;;6.72;100.00;101135.66;5035761;28;20448;-56
2022/11/27 09:32:52;;;;;;;1.40;1.30;;;;;;;6.65;100.00;101125.97;5021695;28;20506;-53
2022/11/27 09:35:19;;;;;;;3.07;2.90;;;;;;;6.29;100.00;101121.50;5041659;28;20455;-54
2022/11/27 09:37:46;;;;;;;1.27;1.17;;;;;;;6.82;100.00;101133.00;5036845;28;20480;-54
2022/11/27 09:40:15;;;;;;;1.67;1.40;;;;;;;7.01;100.00;101133.03;5035049;28;20497;-55
2022/11/27 09:42:49;;;;;;;2.30;2.20;;;;;;;7.13;100.00;101138.31;5039856;28;20882;-53
2022/11/27 09:45:17;;;;;;;3.03;2.00;;;;;;;7.10;100.00;101139.16;5042257;28;20452;-52
2022/11/27 09:47:58;;;;;;;8.03;2.93;;;;;;;7.14;100.00;101148.00;5038924;28;20508;-53
2022/11/27 09:50:36;;;;;;;6.20;1.40;;;;;;;7.30;100.00;101140.94;5035115;28;20451;-55
2022/11/27 09:53:26;;;;;;;2.17;2.07;;;;;;;6.93;100.00;101150.63;5036384;28;20468;-55
2022/11/27 09:55:57;;;;;;;2.50;2.40;;;;;;;7.03;100.00;101148.00;5024885;28;20460;-54
2022/11/27 09:58:45;;;;;;;3.07;2.77;;;;;;;7.09;100.00;101144.47;5043152;28;20448;-54
2022/11/27 10:01:21;;;;;;;3.93;2.77;;;;;;;7.27;100.00;101136.53;5031872;28;20505;-54
2022/11/27 10:03:54;;;;;;;4.67;3.73;;;;;;;7.46;100.00;101133.84;5037818;28;20520;-54
2022/11/27 10:06:42;;;;;;;1.97;1.87;;;;;;;7.17;100.00;101124.19;5037202;28;20970;-54
2022/11/27 10:09:24;;;;;;;2.40;2.00;;;;;;;6.87;100.00;101103.06;5021714;28;20990;-53
2022/11/27 10:11:55;;;;;;;4.40;2.00;;;;;;;6.60;100.00;101096.03;5023556;28;20475;-55
2022/11/27 10:14:27;;;;;;;0.87;0.87;;;;;;;7.08;100.00;101085.41;5045871;28;20500;-54
2022/11/27 10:17:01;;;;;;;1.30;1.10;;;;;;;6.87;100.00;101085.47;5029763;28;20458;-53
2022/11/27 10:19:42;;;;;;;5.90;2.70;;;;;;;6.73;100.00;101081.94;5045730;28;20448;-54
2022/11/27 10:22:26;;;;;;;1.90;1.80;;;;;;;7.11;100.00;101071.31;5044296;28;20995;-53
2022/11/27 10:25:19;;;;;;;3.70;2.17;;;;;;;6.82;100.00;101043.16;5044510;28;20555;-54
2022/11/27 10:28:25;;;;;;;7.73;2.50;;;;;;;6.69;100.00;101053.75;5047062;28;20456;-55
2022/11/27 10:30:57;;;;;;;4.80;2.10;;;;;;;6.64;100.00;101064.31;5032444;28;20903;-55
2022/11/27 10:33:38;;;;;;;2.90;2.57;;;;;;;7.11;100.00;101076.59;5025257;28;20516;-54
2022/11/27 10:36:12;;;;;;;4.97;3.00;;;;;;;7.35;100.00;101071.25;5025978;28;20462;-53
2022/11/27 10:38:40;;;;;;;6.03;1.60;;;;;;;7.43;100.00;101064.19;5039123;28;20478;-53
2022/11/27 10:41:21;;;;;;;1.73;1.33;;;;;;;6.93;100.00;101053.72;5043575;28;20455;-54
2022/11/27 10:44:28;;;;;;;2.73;2.63;;;;;;;6.64;100.00;101029.97;5044875;28;20562;-55
2022/11/27 10:47:01;;;;;;;3.57;1.93;;;;;;;6.49;100.00;101035.28;5045059;28;20456;-53
2022/11/27 10:49:28;;;;;;;1.60;1.53;;;;;;;6.41;100.00;101035.25;5041961;28;20490;-52
2022/11/27 10:51:54;;;;;;;3.40;3.20;;;;;;;6.48;100.00;101034.41;5047888;28;20475;-54
2022/11/27 10:54:26;;;;;;;1.27;1.17;;;;;;;6.74;100.00;101039.66;5042633;28;20458;-55
2022/11/27 10:57:27;;;;;;;1.13;1.10;;;;;;;6.55;100.00;101024.69;5037771;28;20446;-55
2022/11/27 11:00:08;;;;;;;2.00;1.57;;;;;;;6.38;100.00;101011.50;5038250;28;20582;-55
2022/11/27 11:02:38;;;;;;;2.17;1.43;;;;;;;6.51;100.00;101013.25;5047567;28;20569;-53
2022/11/27 11:05:17;;;;;;;10.53;2.47;;;;;;;6.59;100.00;101025.59;5038053;28;21363;-53
2022/11/27 11:08:13;;;;;;;5.30;2.30;;;;;;;6.74;100.00;101023.81;5022759;28;20451;-54
2022/11/27 11:10:51;;;;;;;3.67;2.20;;;;;;;6.80;100.00;101033.50;5040482;28;20447;-53
2022/11/27 11:13:26;;;;;;;6.00;2.23;;;;;;;6.73;100.00;101000.94;5044697;28;20522;-54
2022/11/27 11:16:00;;;;;;;4.97;4.57;;;;;;;6.53;100.00;101000.06;5044873;28;20469;-56
2022/11/27 11:18:32;;;;;;;4.57;4.17;;;;;;;6.76;100.00;101005.31;5031373;28;20448;-53
2022/11/27 11:21:01;;;;;;;12.83;3.07;;;;;;;6.75;100.00;101004.44;5044318;28;20453;-55
2022/11/27 11:23:34;;;;;;;3.43;2.30;;;;;;;6.66;100.00;100988.59;5040362;28;20524;-53
2022/11/27 11:26:22;;;;;;;13.80;3.50;;;;;;;6.73;100.00;100998.28;5037591;28;20869;-53
2022/11/27 11:28:53;;;;;;;4.77;4.47;;;;;;;6.76;100.00;100992.13;5037733;28;20518;-53
2022/11/27 11:31:22;;;;;;;3.67;3.47;;;;;;;6.60;100.00;100977.16;5039126;28;21157;-53
2022/11/27 11:33:57;;;;;;;10.80;4.63;;;;;;;6.81;100.00;100969.19;5025341;28;20479;-52
2022/11/27 11:36:24;;;;;;;4.13;3.93;;;;;;;7.18;100.00;100972.63;5039372;28;20453;-53
2022/11/27 11:38:52;;;;;;;2.40;2.30;;;;;;;7.03;100.00;100978.84;5037434;28;20448;-53
2022/11/27 11:41:19;;;;;;;4.20;3.90;;;;;;;6.82;100.00;100960.38;5041827;28;20539;-54
2022/11/27 11:44:00;;;;;;;6.90;2.97;;;;;;;6.78;100.00;100963.91;5044185;28;20517;-55